| time (UTC) | temp F | wind direction | speed MPH | gust MPH | rain 1hr in | rain 24hr in | rain mn in | humidity % | barometer mb |
| 20260504220714 | 76 | 35 | 3.0 | 11.0 | 0.00 | 0.00 | 0.00 | 26 | 1000.9 |
| 20260504220212 | 77 | 357 | 3.0 | 5.0 | 0.00 | 0.00 | 0.00 | 27 | 1000.9 |
| 20260504215708 | 77 | 20 | 2.0 | 6.0 | 0.00 | 0.00 | 0.00 | 28 | 1000.9 |
| 20260504215206 | 78 | 287 | 2.0 | 9.0 | 0.00 | 0.00 | 0.00 | 27 | 1000.8 |
| 20260504214701 | 80 | 26 | 3.0 | 8.0 | 0.00 | 0.00 | 0.00 | 28 | 1000.5 |
| 20260504214158 | 80 | 352 | 5.0 | 11.0 | 0.00 | 0.00 | 0.00 | 27 | 1000.3 |
| 20260504213654 | 80 | 339 | 5.0 | 20.0 | 0.00 | 0.00 | 0.00 | 27 | 1000.3 |
| 20260504213151 | 81 | 35 | 4.0 | 8.0 | 0.00 | 0.00 | 0.00 | 27 | 1000.2 |
| 20260504212647 | 80 | 73 | 2.0 | 7.0 | 0.00 | 0.00 | 0.00 | 29 | 1000.2 |
| 20260504212144 | 80 | 325 | 2.0 | 9.0 | 0.00 | 0.00 | 0.00 | 28 | 1000.2 |
| 20260504211642 | 81 | 64 | 2.0 | 9.0 | 0.00 | 0.00 | 0.00 | 30 | 1000.2 |
| 20260504211138 | 80 | 62 | 6.0 | 7.0 | 0.00 | 0.00 | 0.00 | 28 | 1000.4 |
| 20260504210636 | 80 | 358 | 9.0 | 9.0 | 0.00 | 0.00 | 0.00 | 30 | 1000.2 |
| 20260504210132 | 81 | 26 | 2.0 | 11.0 | 0.00 | 0.00 | 0.00 | 31 | 1000.2 |
| 20260504205630 | 80 | 323 | 9.0 | 14.0 | 0.00 | 0.00 | 0.00 | 29 | 1000.1 |
| 20260504205127 | 79 | 19 | 2.0 | 12.0 | 0.00 | 0.00 | 0.00 | 31 | 1000.3 |
| 20260504204625 | 80 | 347 | 2.0 | 11.0 | 0.00 | 0.00 | 0.00 | 30 | 1000.2 |
| 20260504204124 | 80 | 351 | 3.0 | 10.0 | 0.00 | 0.00 | 0.00 | 31 | 1000.2 |
| 20260504203622 | 80 | 351 | 0.0 | 10.0 | 0.00 | 0.00 | 0.00 | 31 | 1000.3 |
| 20260504203119 | 82 | 339 | 5.0 | 7.0 | 0.00 | 0.00 | 0.00 | 29 | 1000.4 |
| 20260504202614 | 82 | 8 | 2.0 | 9.0 | 0.00 | 0.00 | 0.00 | 30 | 1000.1 |
| 20260504202111 | 82 | 347 | 3.0 | 8.0 | 0.00 | 0.00 | 0.00 | 29 | 999.9 |
| 20260504201608 | 82 | 297 | 2.0 | 7.0 | 0.00 | 0.00 | 0.00 | 30 | 1000.0 |
| 20260504201106 | 82 | 11 | 3.0 | 10.0 | 0.00 | 0.00 | 0.00 | 28 | 1000.0 |
| 20260504200603 | 82 | 342 | 3.0 | 10.0 | 0.00 | 0.00 | 0.00 | 29 | 1000.1 |
| 20260504200059 | 83 | 311 | 2.0 | 5.0 | 0.00 | 0.00 | 0.00 | 28 | 1000.1 |
| 20260504195555 | 82 | 33 | 2.0 | 12.0 | 0.00 | 0.00 | 0.00 | 28 | 1000.1 |
| 20260504195052 | 82 | 342 | 6.0 | 10.0 | 0.00 | 0.00 | 0.00 | 27 | 999.9 |
| 20260504194548 | 83 | 352 | 3.0 | 7.0 | 0.00 | 0.00 | 0.00 | 27 | 1000.0 |
| 20260504194044 | 83 | 7 | 0.0 | 9.0 | 0.00 | 0.00 | 0.00 | 28 | 1000.0 |
| 20260504193541 | 83 | 56 | 0.0 | 6.0 | 0.00 | 0.00 | 0.00 | 26 | 999.9 |
| 20260504193039 | 83 | 354 | 3.0 | 10.0 | 0.00 | 0.00 | 0.00 | 26 | 999.9 |
| 20260504192537 | 83 | 271 | 7.0 | 10.0 | 0.00 | 0.00 | 0.00 | 26 | 999.9 |
| 20260504192035 | 84 | 294 | 4.0 | 8.0 | 0.00 | 0.00 | 0.00 | 26 | 999.8 |
| 20260504191533 | 83 | 6 | 3.0 | 8.0 | 0.00 | 0.00 | 0.00 | 26 | 999.9 |
| 20260504191029 | 83 | 335 | 2.0 | 9.0 | 0.00 | 0.00 | 0.00 | 27 | 999.9 |
| 20260504190525 | 83 | 335 | 4.0 | 6.0 | 0.00 | 0.00 | 0.00 | 26 | 999.8 |
| 20260504190021 | 83 | 290 | 6.0 | 8.0 | 0.00 | 0.00 | 0.00 | 25 | 999.8 |
| 20260504185518 | 84 | 346 | 3.0 | 8.0 | 0.00 | 0.00 | 0.00 | 25 | 999.8 |
| 20260504185015 | 83 | 279 | 5.0 | 16.0 | 0.00 | 0.00 | 0.00 | 24 | 999.7 |
| 20260504184510 | 83 | 6 | 3.0 | 14.0 | 0.00 | 0.00 | 0.00 | 26 | 999.8 |
| 20260504184006 | 83 | 336 | 2.0 | 9.0 | 0.00 | 0.00 | 0.00 | 26 | 999.8 |
| 20260504183503 | 82 | 276 | 4.0 | 16.0 | 0.00 | 0.00 | 0.00 | 26 | 999.9 |
| 20260504183002 | 83 | 338 | 3.0 | 6.0 | 0.00 | 0.00 | 0.00 | 25 | 999.9 |
| 20260504182458 | 83 | 286 | 3.0 | 9.0 | 0.00 | 0.00 | 0.00 | 26 | 999.7 |
| 20260504181955 | 84 | 317 | 4.0 | 9.0 | 0.00 | 0.00 | 0.00 | 23 | 999.7 |
| 20260504181452 | 82 | 311 | 3.0 | 10.0 | 0.00 | 0.00 | 0.00 | 24 | 999.9 |
| 20260504180950 | 82 | 313 | 2.0 | 23.0 | 0.00 | 0.00 | 0.00 | 24 | 999.8 |
| 20260504180449 | 83 | 331 | 4.0 | 13.0 | 0.00 | 0.00 | 0.00 | 24 | 999.7 |
| 20260504175947 | 82 | 48 | 1.0 | 8.0 | 0.00 | 0.00 | 0.00 | 23 | 999.6 |
| 20260504175444 | 82 | 340 | 2.0 | 10.0 | 0.00 | 0.00 | 0.00 | 24 | 999.9 |
| 20260504174941 | 82 | 283 | 10.0 | 14.0 | 0.00 | 0.00 | 0.00 | 24 | 999.7 |
| 20260504174439 | 82 | 11 | 0.0 | 7.0 | 0.00 | 0.00 | 0.00 | 24 | 999.8 |
| 20260504173936 | 82 | 300 | 4.0 | 13.0 | 0.00 | 0.00 | 0.00 | 24 | 999.9 |
| 20260504173432 | 82 | 331 | 1.0 | 9.0 | 0.00 | 0.00 | 0.00 | 24 | 999.9 |
| 20260504172930 | 82 | 317 | 5.0 | 14.0 | 0.00 | 0.00 | 0.00 | 24 | 1000.0 |
| 20260504172426 | 81 | 233 | 2.0 | 8.0 | 0.00 | 0.00 | 0.00 | 25 | 1000.2 |
| 20260504171922 | 81 | 275 | 7.0 | 13.0 | 0.00 | 0.00 | 0.00 | 26 | 1000.3 |
| 20260504171420 | 81 | 344 | 3.0 | 11.0 | 0.00 | 0.00 | 0.00 | 26 | 1000.1 |
| 20260504170917 | 80 | 306 | 3.0 | 13.0 | 0.00 | 0.00 | 0.00 | 27 | 1000.6 |
| 20260504170413 | 80 | 311 | 0.0 | 8.0 | 0.00 | 0.00 | 0.00 | 29 | 1000.2 |
| 20260504160332 | 73 | 246 | 3.0 | 10.0 | 0.00 | 0.00 | 0.00 | 38 | 1000.8 |
| 20260504150756 | 68 | 281 | 3.0 | 5.0 | 0.00 | 0.00 | 0.00 | 46 | 1000.8 |
| 20260504150253 | 67 | 331 | 3.0 | 6.0 | 0.00 | 0.00 | 0.00 | 48 | 1001.0 |
| 20260504141223 | 64 | 0 | 3.0 | 5.0 | 0.00 | 0.00 | 0.00 | 53 | 1001.1 |
| 20260504140720 | 62 | 357 | 1.0 | 5.0 | 0.00 | 0.00 | 0.00 | 54 | 1001.2 |
| 20260504140215 | 62 | 276 | 1.0 | 4.0 | 0.00 | 0.00 | 0.00 | 54 | 1001.4 |
| 20260504130644 | 56 | 351 | 2.0 | 4.0 | 0.00 | 0.00 | 0.00 | 61 | 1000.9 |
| 20260504130140 | 56 | 341 | 2.0 | 4.0 | 0.00 | 0.00 | 0.00 | 62 | 1000.9 |
| 20260504120104 | 51 | 350 | 2.0 | 4.0 | 0.00 | 0.00 | 0.00 | 72 | 1000.2 |
| 20260504110531 | 52 | 338 | 2.0 | 3.0 | 0.00 | 0.00 | 0.00 | 68 | 1000.1 |
| 20260504100448 | 56 | 338 | 3.0 | 3.0 | 0.00 | 0.00 | 0.00 | 57 | 1000.3 |
| 20260504081841 | 62 | 113 | 2.0 | 3.0 | 0.00 | 0.00 | 0.00 | 43 | 1001.6 |
| 20260504081338 | 62 | 104 | 1.0 | 3.0 | 0.00 | 0.00 | 0.00 | 43 | 1001.7 |
| 20260504080833 | 62 | 67 | 1.0 | 3.0 | 0.00 | 0.00 | 0.00 | 43 | 1001.8 |
| 20260504080331 | 61 | 74 | 2.0 | 2.0 | 0.00 | 0.00 | 0.00 | 43 | 1001.7 |
| 20260504070258 | 62 | 102 | 0.0 | 2.0 | 0.00 | 0.00 | 0.00 | 42 | 1003.3 |
| 20260504060218 | 62 | 96 | 1.0 | 3.0 | 0.00 | 0.00 | 0.00 | 42 | 1004.3 |
| 20260504050646 | 62 | 103 | 1.0 | 3.0 | 0.00 | 0.00 | 0.00 | 42 | 1004.6 |
| 20260504050143 | 62 | 86 | 1.0 | 2.0 | 0.00 | 0.00 | 0.00 | 42 | 1004.6 |
| 20260504045640 | 63 | 18 | 0.0 | 2.0 | 0.00 | 0.00 | 0.00 | 42 | 1004.7 |
| 20260504045140 | 63 | 19 | 1.0 | 2.0 | 0.00 | 0.00 | 0.00 | 41 | 1004.7 |
| 20260504044638 | 63 | 63 | 0.0 | 2.0 | 0.00 | 0.00 | 0.00 | 41 | 1004.7 |
| 20260504044135 | 63 | 96 | 1.0 | 3.0 | 0.00 | 0.00 | 0.00 | 41 | 1004.9 |
| 20260504043632 | 64 | 103 | 1.0 | 2.0 | 0.00 | 0.00 | 0.00 | 40 | 1005.0 |
| 20260504043129 | 64 | 101 | 1.0 | 2.0 | 0.00 | 0.00 | 0.00 | 41 | 1005.0 |
| 20260504042626 | 64 | 102 | 2.0 | 2.0 | 0.00 | 0.00 | 0.00 | 41 | 1005.1 |
| 20260504042123 | 64 | 91 | 2.0 | 2.0 | 0.00 | 0.00 | 0.00 | 41 | 1005.1 |
| 20260504041619 | 64 | 108 | 0.0 | 2.0 | 0.00 | 0.00 | 0.00 | 40 | 1005.1 |
| 20260504041115 | 64 | 96 | 0.0 | 2.0 | 0.00 | 0.00 | 0.00 | 40 | 1005.4 |
| 20260504040613 | 64 | 106 | 0.0 | 2.0 | 0.00 | 0.00 | 0.00 | 40 | 1005.5 |
| 20260504040109 | 65 | 77 | 2.0 | 5.0 | 0.00 | 0.00 | 0.00 | 40 | 1005.4 |
| 20260504035606 | 64 | 96 | 1.0 | 2.0 | 0.00 | 0.00 | 0.00 | 40 | 1005.2 |
| 20260504035102 | 64 | 103 | 2.0 | 2.0 | 0.00 | 0.00 | 0.00 | 40 | 1005.5 |
| 20260504034600 | 65 | 57 | 0.0 | 2.0 | 0.00 | 0.00 | 0.00 | 40 | 1005.6 |
| 20260504034057 | 65 | 87 | 1.0 | 2.0 | 0.00 | 0.00 | 0.00 | 39 | 1005.7 |
| 20260504033555 | 64 | 84 | 1.0 | 2.0 | 0.00 | 0.00 | 0.00 | 40 | 1005.7 |
| 20260504033052 | 64 | 57 | 0.0 | 1.0 | 0.00 | 0.00 | 0.00 | 40 | 1005.6 |
| 20260504032549 | 65 | 21 | 0.0 | 1.0 | 0.00 | 0.00 | 0.00 | 40 | 1005.6 |
| 20260504032046 | 64 | 101 | 0.0 | 2.0 | 0.00 | 0.00 | 0.00 | 40 | 1005.6 |
| 20260504031543 | 65 | 78 | 1.0 | 2.0 | 0.00 | 0.00 | 0.00 | 41 | 1005.6 |
| 20260504031039 | 65 | 50 | 0.0 | 1.0 | 0.00 | 0.00 | 0.00 | 41 | 1005.3 |
| 20260504030536 | 65 | 43 | 0.0 | 1.0 | 0.00 | 0.00 | 0.00 | 41 | 1005.7 |
| 20260504030032 | 65 | 58 | 0.0 | 2.0 | 0.00 | 0.00 | 0.00 | 41 | 1005.7 |
| 20260504025530 | 66 | 65 | 0.0 | 2.0 | 0.00 | 0.00 | 0.00 | 40 | 1005.7 |
| 20260504025026 | 66 | 94 | 0.0 | 1.0 | 0.00 | 0.00 | 0.00 | 39 | 1005.7 |
| 20260504024523 | 66 | 28 | 0.0 | 1.0 | 0.00 | 0.00 | 0.00 | 39 | 1005.6 |
| 20260504024020 | 67 | 89 | 0.0 | 2.0 | 0.00 | 0.00 | 0.00 | 38 | 1005.6 |
| 20260504023517 | 67 | 98 | 2.0 | 2.0 | 0.00 | 0.00 | 0.00 | 38 | 1005.7 |
| 20260504023013 | 67 | 100 | 2.0 | 2.0 | 0.00 | 0.00 | 0.00 | 39 | 1005.6 |
| 20260504022508 | 67 | 57 | 0.0 | 1.0 | 0.00 | 0.00 | 0.00 | 38 | 1005.7 |
| 20260504022005 | 67 | 39 | 2.0 | 2.0 | 0.00 | 0.00 | 0.00 | 38 | 1005.7 |
| 20260504021503 | 67 | 37 | 1.0 | 2.0 | 0.00 | 0.00 | 0.00 | 38 | 1005.9 |
| 20260504021000 | 67 | 0 | 0.0 | 1.0 | 0.00 | 0.00 | 0.00 | 38 | 1006.1 |
| 20260504020456 | 68 | 50 | 0.0 | 2.0 | 0.00 | 0.00 | 0.00 | 37 | 1005.8 |
| 20260504015953 | 68 | 6 | 0.0 | 2.0 | 0.00 | 0.00 | 0.00 | 37 | 1006.1 |
| 20260504015449 | 68 | 27 | 0.0 | 2.0 | 0.00 | 0.00 | 0.00 | 36 | 1005.9 |
| 20260504014945 | 68 | 24 | 0.0 | 1.0 | 0.00 | 0.00 | 0.00 | 37 | 1006.1 |
| 20260504014441 | 68 | 24 | 0.0 | 0.0 | 0.00 | 0.00 | 0.00 | 36 | 1006.1 |
| 20260504013938 | 69 | 39 | 1.0 | 2.0 | 0.00 | 0.00 | 0.00 | 36 | 1005.9 |
| 20260504013437 | 69 | 27 | 0.0 | 1.0 | 0.00 | 0.00 | 0.00 | 36 | 1005.9 |
| 20260504012932 | 69 | 112 | 0.0 | 1.0 | 0.00 | 0.00 | 0.00 | 35 | 1005.8 |
| 20260504012431 | 69 | 24 | 0.0 | 1.0 | 0.00 | 0.00 | 0.00 | 35 | 1006.0 |
| 20260504011928 | 70 | 24 | 0.0 | 2.0 | 0.00 | 0.00 | 0.00 | 35 | 1005.9 |
| 20260504011425 | 70 | 16 | 0.0 | 2.0 | 0.00 | 0.00 | 0.00 | 35 | 1005.7 |
| 20260504010920 | 71 | 29 | 0.0 | 2.0 | 0.00 | 0.00 | 0.00 | 34 | 1005.9 |
| 20260504010416 | 71 | 35 | 0.0 | 2.0 | 0.00 | 0.00 | 0.00 | 33 | 1006.1 |
| 20260504005913 | 71 | 19 | 0.0 | 1.0 | 0.00 | 0.00 | 0.00 | 33 | 1006.1 |
| 20260504005410 | 72 | 31 | 0.0 | 1.0 | 0.00 | 0.00 | 0.00 | 33 | 1006.4 |
| 20260504004908 | 72 | 12 | 0.0 | 1.0 | 0.00 | 0.00 | 0.00 | 32 | 1006.3 |
| 20260504004405 | 73 | 8 | 0.0 | 2.0 | 0.00 | 0.00 | 0.00 | 31 | 1006.4 |
| 20260504003901 | 73 | 33 | 1.0 | 2.0 | 0.00 | 0.00 | 0.00 | 31 | 1006.5 |
| 20260504003358 | 73 | 38 | 1.0 | 1.0 | 0.00 | 0.00 | 0.00 | 31 | 1006.4 |
| 20260504002855 | 74 | 9 | 1.0 | 2.0 | 0.00 | 0.00 | 0.00 | 30 | 1006.5 |
| 20260504002351 | 74 | 15 | 1.0 | 2.0 | 0.00 | 0.00 | 0.00 | 29 | 1006.4 |
| 20260504001849 | 74 | 12 | 0.0 | 3.0 | 0.00 | 0.00 | 0.00 | 29 | 1006.5 |
| 20260504001346 | 75 | 63 | 0.0 | 4.0 | 0.00 | 0.00 | 0.00 | 28 | 1006.5 |
| 20260504000843 | 76 | 6 | 0.0 | 2.0 | 0.00 | 0.00 | 0.00 | 27 | 1006.6 |
| 20260504000340 | 77 | 336 | 1.0 | 2.0 | 0.00 | 0.00 | 0.00 | 28 | 1006.6 |
| 20260503235838 | 76 | 32 | 2.0 | 4.0 | 0.00 | 0.00 | 0.00 | 27 | 1006.8 |
| 20260503235335 | 77 | 351 | 1.0 | 2.0 | 0.00 | 0.00 | 0.00 | 27 | 1007.0 |
| 20260503234832 | 77 | 24 | 0.0 | 4.0 | 0.00 | 0.00 | 0.00 | 28 | 1006.6 |
| 20260503234330 | 77 | 1 | 0.0 | 4.0 | 0.00 | 0.00 | 0.00 | 28 | 1006.8 |
| 20260503233828 | 77 | 39 | 3.0 | 3.0 | 0.00 | 0.00 | 0.00 | 28 | 1007.0 |
| 20260503233323 | 78 | 37 | 0.0 | 2.0 | 0.00 | 0.00 | 0.00 | 27 | 1007.1 |
| 20260503232820 | 78 | 23 | 0.0 | 2.0 | 0.00 | 0.00 | 0.00 | 27 | 1006.8 |
| 20260503232318 | 78 | 132 | 0.0 | 2.0 | 0.00 | 0.00 | 0.00 | 27 | 1006.9 |
| 20260503231815 | 78 | 76 | 1.0 | 3.0 | 0.00 | 0.00 | 0.00 | 27 | 1006.8 |
| 20260503231312 | 78 | 326 | 0.0 | 3.0 | 0.00 | 0.00 | 0.00 | 26 | 1007.0 |
| 20260503230808 | 78 | 82 | 4.0 | 5.0 | 0.00 | 0.00 | 0.00 | 26 | 1006.8 |
| 20260503230305 | 78 | 102 | 2.0 | 3.0 | 0.00 | 0.00 | 0.00 | 27 | 1006.9 |
| 20260503225803 | 78 | 343 | 1.0 | 4.0 | 0.00 | 0.00 | 0.00 | 27 | 1007.0 |
| 20260503225258 | 77 | 1 | 0.0 | 3.0 | 0.00 | 0.00 | 0.00 | 26 | 1007.0 |
| 20260503224755 | 78 | 316 | 2.0 | 5.0 | 0.00 | 0.00 | 0.00 | 27 | 1006.9 |
| 20260503224252 | 78 | 41 | 0.0 | 3.0 | 0.00 | 0.00 | 0.00 | 26 | 1007.1 |
| 20260503223750 | 78 | 320 | 1.0 | 3.0 | 0.00 | 0.00 | 0.00 | 28 | 1007.3 |
| 20260503223248 | 78 | 50 | 1.0 | 2.0 | 0.00 | 0.00 | 0.00 | 26 | 1007.2 |
| 20260503222743 | 79 | 62 | 3.0 | 4.0 | 0.00 | 0.00 | 0.00 | 25 | 1007.2 |
| 20260503222241 | 79 | 92 | 0.0 | 2.0 | 0.00 | 0.00 | 0.00 | 26 | 1007.5 |
| 20260503221740 | 78 | 70 | 0.0 | 3.0 | 0.00 | 0.00 | 0.00 | 26 | 1007.4 |
| 20260503221237 | 78 | 21 | 0.0 | 5.0 | 0.00 | 0.00 | 0.00 | 26 | 1007.3 |